Time;durP1;ratioP1;P1;durP2;ratioP2;P2;SDS_P1;SDS_P2;PMS_P1;PMS_P2;Temp;Humidity;BMP_temperature;BMP_pressure;BME280_temperature;BME280_humidity;BME280_pressure;Samples;Min_cycle;Max_cycle;Signal;HPM_P1;HPM_P2
2021/12/06 00:00:29;;;;;;;26.90;20.58;;;;;;;1.83;92.89;101107.06;5047827;28;20106;-71
2021/12/06 00:02:58;;;;;;;23.95;19.45;;;;;;;1.80;92.73;101115.88;5036259;28;20036;-72
2021/12/06 00:05:25;;;;;;;33.10;21.63;;;;;;;1.80;92.86;101115.88;5048632;28;20033;-72
2021/12/06 00:07:51;;;;;;;32.53;22.27;;;;;;;1.82;93.30;101118.47;5062740;28;20040;-72
2021/12/06 00:10:16;;;;;;;31.23;21.10;;;;;;;1.80;93.16;101123.75;5062593;28;20070;-72
2021/12/06 00:12:43;;;;;;;31.83;21.50;;;;;;;1.77;92.79;101121.22;5069796;28;20072;-72
2021/12/06 00:15:09;;;;;;;27.88;20.63;;;;;;;1.78;93.13;101122.06;5069396;28;20097;-72
2021/12/06 00:17:35;;;;;;;32.92;21.05;;;;;;;1.76;93.41;101129.13;5061326;28;20070;-71
2021/12/06 00:20:01;;;;;;;30.02;20.70;;;;;;;1.76;93.44;101127.38;5071060;28;20048;-72
2021/12/06 00:22:27;;;;;;;30.42;21.23;;;;;;;1.76;93.78;101131.75;5064124;28;20029;-72
2021/12/06 00:24:54;;;;;;;28.33;21.88;;;;;;;1.76;94.19;101131.75;5062769;28;20048;-72
2021/12/06 00:27:20;;;;;;;29.50;21.20;;;;;;;1.77;93.94;101138.72;5070367;28;20064;-71
2021/12/06 00:29:48;;;;;;;28.10;22.20;;;;;;;1.77;94.06;101142.19;5071110;28;20025;-71
2021/12/06 00:32:13;;;;;;;28.05;22.42;;;;;;;1.76;93.90;101142.22;5043022;28;20033;-71
2021/12/06 00:34:40;;;;;;;32.47;23.42;;;;;;;1.75;93.88;101149.25;5060613;28;20460;-72
2021/12/06 00:37:22;;;;;;;31.10;23.10;;;;;;;1.74;94.27;101144.91;5071326;28;20392;-72
2021/12/06 00:39:51;;;;;;;31.02;23.73;;;;;;;1.74;94.71;101147.53;5071119;28;20437;-72
2021/12/06 00:42:19;;;;;;;30.67;22.80;;;;;;;1.75;94.33;101158.84;5066463;28;20035;-71
2021/12/06 00:44:45;;;;;;;28.65;21.27;;;;;;;1.75;94.23;101164.97;5070898;28;20028;-71
2021/12/06 00:47:10;;;;;;;32.13;24.08;;;;;;;1.76;94.88;101165.81;5050530;28;20033;-71
2021/12/06 00:49:36;;;;;;;30.25;24.00;;;;;;;1.76;94.94;101169.25;5064380;28;20491;-71
2021/12/06 00:52:01;;;;;;;30.88;23.85;;;;;;;1.76;94.39;101171.03;5050747;28;20486;-71
2021/12/06 00:54:29;;;;;;;35.53;24.38;;;;;;;1.76;94.45;101178.91;5061497;28;20028;-71
2021/12/06 00:56:54;;;;;;;33.30;24.85;;;;;;;1.76;95.03;101174.50;5060247;28;20052;-71
2021/12/06 00:59:20;;;;;;;32.80;23.95;;;;;;;1.79;95.52;101189.28;5045210;28;20084;-71
2021/12/06 01:01:45;;;;;;;29.67;22.10;;;;;;;1.79;95.15;101197.13;5068375;28;20486;-71
2021/12/06 01:04:10;;;;;;;29.00;22.15;;;;;;;1.80;95.37;101197.06;5070396;28;20093;-71
2021/12/06 01:06:35;;;;;;;27.58;21.48;;;;;;;1.81;95.40;101203.16;5053744;28;20025;-71
2021/12/06 01:09:01;;;;;;;27.65;21.25;;;;;;;1.81;95.51;101204.00;5045169;28;20135;-71
2021/12/06 01:11:26;;;;;;;28.80;22.70;;;;;;;1.81;95.37;101198.78;5059551;28;20024;-71
2021/12/06 01:13:52;;;;;;;28.33;22.25;;;;;;;1.82;95.46;101199.66;5057330;28;20020;-71
2021/12/06 01:16:17;;;;;;;27.95;21.75;;;;;;;1.83;95.54;101196.97;5046485;28;20036;-71
2021/12/06 01:18:43;;;;;;;25.55;20.75;;;;;;;1.84;95.42;101200.44;5062792;28;20434;-71
2021/12/06 01:21:25;;;;;;;27.70;21.40;;;;;;;1.83;95.54;101204.84;5050144;28;20029;-71
2021/12/06 01:23:58;;;;;;;27.40;21.77;;;;;;;1.84;95.63;101210.91;5043926;28;20029;-71
2021/12/06 01:26:37;;;;;;;27.95;22.50;;;;;;;1.82;95.54;101213.59;5030596;28;20030;-71
2021/12/06 01:31:45;;;;;;;29.30;21.60;;;;;;;1.84;95.31;101214.38;5030320;28;19936;-70
2021/12/06 01:39:47;;;;;;;30.55;23.83;;;;;;;1.84;95.64;101217.00;5049985;28;20090;-70
2021/12/06 01:42:12;;;;;;;30.60;24.15;;;;;;;1.84;95.51;101218.78;5029343;28;20033;-70
2021/12/06 01:44:47;;;;;;;31.00;23.65;;;;;;;1.85;95.90;101223.97;5030316;28;20109;-70
2021/12/06 01:47:16;;;;;;;34.45;25.20;;;;;;;1.87;96.17;101223.06;5030571;28;20385;-70
2021/12/06 01:49:44;;;;;;;31.33;23.80;;;;;;;1.89;96.45;101223.88;5030384;28;20030;-70
2021/12/06 01:52:16;;;;;;;35.20;25.40;;;;;;;1.89;96.29;101229.94;5030254;28;20480;-70
2021/12/06 01:54:42;;;;;;;31.02;24.20;;;;;;;1.90;95.91;101236.03;5030314;28;20036;-70
2021/12/06 01:57:08;;;;;;;29.55;23.38;;;;;;;1.91;95.84;101235.97;5030008;28;20369;-70
2021/12/06 01:59:34;;;;;;;32.22;24.95;;;;;;;1.92;96.20;101236.88;5029954;28;20026;-70
2021/12/06 02:01:59;;;;;;;33.38;24.80;;;;;;;1.93;96.55;101241.16;5028742;28;20029;-71
2021/12/06 02:04:28;;;;;;;28.98;24.40;;;;;;;1.92;96.16;101236.88;5029437;28;20033;-70
2021/12/06 02:06:55;;;;;;;30.25;23.77;;;;;;;1.95;96.20;101240.22;5050078;28;20025;-71
2021/12/06 02:09:25;;;;;;;34.10;26.05;;;;;;;1.96;96.57;101243.69;5068725;28;20332;-71
2021/12/06 02:11:52;;;;;;;32.38;25.80;;;;;;;1.96;96.70;101241.91;5053195;28;20032;-71
2021/12/06 02:16:59;;;;;;;32.28;25.40;;;;;;;2.00;97.03;101240.06;5061711;28;20486;-71
2021/12/06 02:19:31;;;;;;;28.60;24.10;;;;;;;2.01;96.51;101245.22;5073704;28;20032;-70
2021/12/06 02:21:56;;;;;;;31.65;24.40;;;;;;;2.01;96.72;101241.75;5070232;28;20021;-71
2021/12/06 02:24:22;;;;;;;29.52;22.98;;;;;;;2.00;96.49;101247.94;5047669;28;20039;-71
2021/12/06 02:26:47;;;;;;;31.63;24.75;;;;;;;2.02;96.36;101256.59;5072606;28;20359;-70
2021/12/06 02:29:13;;;;;;;32.70;25.23;;;;;;;2.03;96.57;101260.91;5069450;28;20033;-70
2021/12/06 02:31:38;;;;;;;34.00;25.48;;;;;;;2.03;96.76;101259.16;5052014;28;20020;-70
2021/12/06 02:34:05;;;;;;;34.50;26.50;;;;;;;2.05;96.71;101266.97;5059104;28;20387;-70
2021/12/06 02:36:32;;;;;;;33.33;24.38;;;;;;;2.04;96.75;101263.47;5062562;28;20033;-71
2021/12/06 02:38:58;;;;;;;31.60;24.33;;;;;;;2.06;97.10;101270.44;5057122;28;20027;-71
2021/12/06 02:41:23;;;;;;;30.83;24.88;;;;;;;2.08;96.88;101271.22;5068732;28;20028;-71
2021/12/06 02:43:52;;;;;;;31.35;23.65;;;;;;;2.09;96.80;101276.41;5059665;28;20475;-70
2021/12/06 02:46:17;;;;;;;31.95;24.75;;;;;;;2.09;96.88;101268.56;5058501;28;20039;-70
2021/12/06 02:48:42;;;;;;;35.20;25.02;;;;;;;2.12;96.69;101283.34;5057775;28;20024;-69
2021/12/06 02:51:09;;;;;;;33.92;25.10;;;;;;;2.13;96.99;101285.03;5072796;28;20113;-70
2021/12/06 02:53:36;;;;;;;32.67;25.75;;;;;;;2.12;97.21;101278.09;5066768;28;20025;-70
2021/12/06 02:56:17;;;;;;;36.50;26.10;;;;;;;2.13;97.11;101285.03;5072496;28;20032;-70
2021/12/06 02:58:55;;;;;;;31.30;24.33;;;;;;;2.14;96.89;101284.97;5067842;28;20040;-70
2021/12/06 03:01:32;;;;;;;32.25;24.63;;;;;;;2.16;96.95;101287.53;5068962;28;20029;-70
2021/12/06 03:03:59;;;;;;;33.50;25.63;;;;;;;2.16;96.59;101285.78;5049062;28;20033;-70
2021/12/06 03:06:25;;;;;;;34.15;25.45;;;;;;;2.17;96.65;101289.28;5055687;28;20032;-71
2021/12/06 03:09:04;;;;;;;33.20;25.88;;;;;;;2.15;96.77;101289.31;5047161;28;20045;-71
2021/12/06 03:11:35;;;;;;;31.38;25.95;;;;;;;2.14;96.24;101286.75;5055740;28;20025;-70
2021/12/06 03:14:01;;;;;;;34.20;26.35;;;;;;;2.15;96.68;101291.06;5067848;28;20585;-70
2021/12/06 03:16:26;;;;;;;31.50;25.25;;;;;;;2.16;96.61;101287.53;5064900;28;20029;-71
2021/12/06 03:18:54;;;;;;;32.17;24.27;;;;;;;2.09;96.72;101284.28;5064108;28;20025;-71
2021/12/06 03:21:21;;;;;;;37.60;26.45;;;;;;;2.17;96.96;101299.75;5052438;28;20033;-71
2021/12/06 03:23:47;;;;;;;38.33;26.75;;;;;;;2.16;96.69;101293.63;5042622;28;20037;-71
2021/12/06 03:26:12;;;;;;;32.60;25.25;;;;;;;2.15;96.73;101296.31;5047843;28;20025;-71
2021/12/06 03:28:41;;;;;;;35.53;25.98;;;;;;;2.15;96.42;101296.31;5045473;28;20033;-71
2021/12/06 03:31:07;;;;;;;33.40;26.60;;;;;;;2.16;96.92;101293.63;5052025;28;20033;-71
2021/12/06 03:33:35;;;;;;;35.35;26.38;;;;;;;2.16;96.99;101292.78;5050841;28;20028;-71
2021/12/06 03:36:04;;;;;;;32.40;25.92;;;;;;;2.17;97.10;101282.25;5042886;28;20561;-70
2021/12/06 03:38:30;;;;;;;35.08;24.92;;;;;;;2.18;96.78;101291.84;5044711;28;20447;-71
2021/12/06 03:40:55;;;;;;;34.42;26.30;;;;;;;2.19;97.03;101297.94;5071817;28;20111;-71
2021/12/06 03:43:20;;;;;;;39.47;28.15;;;;;;;2.20;96.91;101299.66;5071878;28;20028;-70
2021/12/06 03:45:46;;;;;;;36.17;27.30;;;;;;;2.20;96.94;101295.25;5064644;28;20033;-70
2021/12/06 03:48:11;;;;;;;35.55;28.98;;;;;;;2.22;97.25;101300.44;5060227;28;20501;-71
2021/12/06 03:50:36;;;;;;;40.65;27.23;;;;;;;2.23;97.16;101304.75;5057945;28;20074;-71
2021/12/06 03:53:02;;;;;;;35.85;26.60;;;;;;;2.22;96.68;101298.66;5056691;28;20044;-70
2021/12/06 03:55:27;;;;;;;37.55;27.83;;;;;;;2.21;96.98;101301.34;5054005;28;20025;-70
2021/12/06 03:57:52;;;;;;;35.13;27.02;;;;;;;2.23;97.33;101294.28;5050649;28;20025;-70
2021/12/06 04:00:18;;;;;;;36.05;27.45;;;;;;;2.21;96.67;101294.38;5070847;28;20021;-71
2021/12/06 04:02:43;;;;;;;35.58;26.58;;;;;;;2.22;96.65;101296.06;5067506;28;20021;-71
2021/12/06 04:05:09;;;;;;;37.40;25.98;;;;;;;2.22;96.94;101298.66;5060890;28;20033;-71
2021/12/06 04:07:34;;;;;;;38.17;27.30;;;;;;;2.21;96.92;101304.84;5044033;28;20049;-70
2021/12/06 04:09:59;;;;;;;36.45;26.55;;;;;;;2.20;96.70;101307.50;5062969;28;20033;-70
2021/12/06 04:12:25;;;;;;;36.97;28.58;;;;;;;2.22;96.92;101310.94;5054213;28;20505;-70
2021/12/06 04:14:51;;;;;;;39.17;28.50;;;;;;;2.23;96.98;101315.25;5071257;28;20034;-70
2021/12/06 04:17:17;;;;;;;35.97;27.38;;;;;;;2.22;96.93;101310.94;5068306;28;20426;-70
2021/12/06 04:19:42;;;;;;;35.25;26.73;;;;;;;2.25;96.89;101310.84;5071083;28;20028;-71
2021/12/06 04:22:09;;;;;;;37.28;27.25;;;;;;;2.26;97.20;101309.91;5056591;28;20033;-70
2021/12/06 04:24:35;;;;;;;42.40;28.60;;;;;;;2.25;97.23;101305.59;5057748;28;20025;-70
2021/12/06 04:27:06;;;;;;;36.88;28.88;;;;;;;2.25;96.90;101304.72;5067460;28;20433;-70
2021/12/06 04:29:32;;;;;;;41.53;28.77;;;;;;;2.23;96.77;101304.75;5055203;28;20035;-70
2021/12/06 04:31:57;;;;;;;37.58;28.63;;;;;;;2.21;96.81;101304.84;5069239;28;20024;-70
2021/12/06 04:34:23;;;;;;;34.92;26.23;;;;;;;2.20;96.75;101308.34;5070817;28;20471;-71
2021/12/06 04:36:48;;;;;;;37.03;27.65;;;;;;;2.19;96.48;101311.88;5042323;28;20036;-70
2021/12/06 04:39:16;;;;;;;34.70;28.15;;;;;;;2.17;96.28;101324.19;5058932;28;20029;-70
2021/12/06 04:41:42;;;;;;;35.80;26.23;;;;;;;2.17;96.59;101318.94;5068809;28;20024;-70
2021/12/06 04:44:09;;;;;;;36.92;26.73;;;;;;;2.15;96.26;101317.28;5062059;28;20025;-70
2021/12/06 04:46:35;;;;;;;35.92;26.73;;;;;;;2.14;96.25;101320.81;5052894;28;20029;-70
2021/12/06 04:49:01;;;;;;;33.58;25.90;;;;;;;2.12;96.02;101320.03;5070709;28;20154;-70
2021/12/06 04:51:26;;;;;;;36.17;25.98;;;;;;;2.10;96.06;101325.31;5070137;28;20148;-70
2021/12/06 04:53:52;;;;;;;31.25;24.42;;;;;;;2.08;96.04;101334.13;5041343;28;20029;-69
2021/12/06 04:56:28;;;;;;;34.45;25.95;;;;;;;2.01;95.67;101331.69;5061470;28;20047;-69
2021/12/06 04:59:34;;;;;;;29.45;23.88;;;;;;;2.04;95.76;101338.59;5066394;28;20086;-69
2021/12/06 05:02:09;;;;;;;31.23;23.15;;;;;;;1.95;96.01;101336.28;5064386;28;20045;-69
2021/12/06 05:04:39;;;;;;;30.85;24.05;;;;;;;1.91;95.35;101334.69;5050613;28;20116;-70
2021/12/06 05:07:10;;;;;;;31.73;24.25;;;;;;;1.85;94.90;101335.75;5060890;28;20489;-70
2021/12/06 05:09:38;;;;;;;30.90;23.95;;;;;;;1.80;94.85;101332.41;5065695;28;20064;-70
2021/12/06 05:12:05;;;;;;;29.35;24.02;;;;;;;1.76;94.91;101336.88;5051568;28;20040;-71
2021/12/06 05:14:31;;;;;;;31.70;23.85;;;;;;;1.74;94.75;101337.84;5062597;28;20048;-70
2021/12/06 05:16:56;;;;;;;28.55;22.30;;;;;;;1.70;94.62;101344.94;5056463;28;20025;-71
2021/12/06 05:19:22;;;;;;;27.70;21.95;;;;;;;1.66;94.48;101341.53;5064089;28;20032;-70
2021/12/06 05:21:48;;;;;;;38.67;23.50;;;;;;;1.62;94.66;101350.41;5058943;28;20095;-70
2021/12/06 05:24:15;;;;;;;32.35;23.10;;;;;;;1.60;94.53;101356.59;5056052;28;20036;-71
2021/12/06 05:26:41;;;;;;;45.88;25.05;;;;;;;1.57;94.69;101361.94;5054109;28;20375;-71
2021/12/06 05:29:09;;;;;;;41.75;23.80;;;;;;;1.53;94.90;101360.31;5064354;28;20017;-71
2021/12/06 05:31:39;;;;;;;136.43;23.58;;;;;;;1.47;94.35;101362.22;5070259;28;20028;-72
2021/12/06 05:34:10;;;;;;;61.25;21.70;;;;;;;1.46;94.78;101359.63;5070291;28;20036;-71
2021/12/06 05:36:35;;;;;;;49.88;21.00;;;;;;;1.40;94.36;101363.31;5044380;28;20166;-71
2021/12/06 05:39:01;;;;;;;50.35;23.45;;;;;;;1.36;94.51;101347.75;5058457;28;20112;-71
2021/12/06 05:41:27;;;;;;;72.00;22.92;;;;;;;1.36;94.64;101358.22;5049881;28;20025;-71
2021/12/06 05:43:52;;;;;;;63.95;20.90;;;;;;;1.33;94.60;101353.06;5057020;28;20174;-72
2021/12/06 05:46:18;;;;;;;53.38;21.83;;;;;;;1.31;95.02;101358.34;5045816;28;20032;-72
2021/12/06 05:48:43;;;;;;;127.25;23.58;;;;;;;1.28;95.17;101353.19;5051664;28;20034;-72
2021/12/06 05:51:08;;;;;;;48.83;21.13;;;;;;;1.26;95.31;101358.47;5061337;28;20040;-72
2021/12/06 05:53:34;;;;;;;70.72;22.20;;;;;;;1.25;95.25;101356.78;5044724;28;20113;-72
2021/12/06 05:56:01;;;;;;;65.57;23.58;;;;;;;1.24;95.57;101349.81;5064020;28;20040;-71
2021/12/06 05:58:26;;;;;;;48.47;23.35;;;;;;;1.25;95.65;101355.88;5071698;28;20029;-71
2021/12/06 06:00:53;;;;;;;76.43;22.40;;;;;;;1.25;95.86;101361.13;5071754;28;20024;-72
2021/12/06 06:03:18;;;;;;;61.55;24.23;;;;;;;1.24;95.77;101367.28;5068622;28;20037;-72
2021/12/06 06:05:43;;;;;;;124.45;24.27;;;;;;;1.22;96.15;101366.47;5064369;28;20483;-72
2021/12/06 06:08:09;;;;;;;100.20;25.67;;;;;;;1.21;96.04;101376.06;5061554;28;20487;-72
2021/12/06 06:10:35;;;;;;;49.63;24.77;;;;;;;1.21;96.42;101378.69;5069527;28;20025;-71
2021/12/06 06:13:01;;;;;;;51.10;25.23;;;;;;;1.21;96.29;101389.16;5052387;28;20080;-71
2021/12/06 06:15:29;;;;;;;98.78;26.13;;;;;;;1.21;96.46;101388.28;5068994;28;20036;-70
2021/12/06 06:17:55;;;;;;;98.47;24.92;;;;;;;1.20;96.34;101390.06;5061087;28;20028;-70
2021/12/06 06:20:30;;;;;;;56.72;24.15;;;;;;;1.18;96.36;101385.75;5072800;28;20097;-70
2021/12/06 06:22:56;;;;;;;39.38;23.95;;;;;;;1.21;96.59;101394.38;5065723;28;20123;-70
2021/12/06 06:25:21;;;;;;;102.95;26.58;;;;;;;1.19;96.60;101400.56;5066396;28;20112;-71
2021/12/06 06:27:47;;;;;;;75.85;25.02;;;;;;;1.20;96.96;101405.75;5046815;28;20247;-70
2021/12/06 06:30:14;;;;;;;52.10;25.40;;;;;;;1.21;97.31;101401.38;5073217;28;20024;-70
2021/12/06 06:32:39;;;;;;;98.57;26.25;;;;;;;1.21;97.23;101399.59;5059436;28;20029;-70
2021/12/06 06:35:06;;;;;;;70.03;25.50;;;;;;;1.22;97.32;101397.88;5065864;28;20100;-71
2021/12/06 06:37:32;;;;;;;102.95;27.05;;;;;;;1.23;97.28;101396.94;5043064;28;20037;-70
2021/12/06 06:39:57;;;;;;;78.50;25.45;;;;;;;1.23;97.57;101395.22;5044752;28;20022;-71
2021/12/06 06:42:23;;;;;;;103.25;27.05;;;;;;;1.23;97.70;101392.59;5031917;28;20066;-70
2021/12/06 06:44:53;;;;;;;106.20;27.63;;;;;;;1.23;97.88;101394.34;5049144;28;20025;-70
2021/12/06 06:47:18;;;;;;;78.82;28.63;;;;;;;1.24;98.11;101401.28;5033819;28;20099;-71
2021/12/06 06:49:44;;;;;;;75.47;27.05;;;;;;;1.24;98.14;101402.16;5054666;28;20033;-70
2021/12/06 06:52:14;;;;;;;76.13;27.55;;;;;;;1.24;98.39;101398.69;5053612;28;20060;-71
2021/12/06 06:54:39;;;;;;;88.82;27.60;;;;;;;1.25;98.21;101401.25;5051522;28;20033;-70
2021/12/06 06:57:05;;;;;;;86.97;28.77;;;;;;;1.24;98.32;101391.69;5050024;28;20080;-70
2021/12/06 06:59:30;;;;;;;103.38;27.77;;;;;;;1.25;98.26;101401.25;5051103;28;20060;-70
2021/12/06 07:01:56;;;;;;;83.25;28.10;;;;;;;1.24;98.26;101402.16;5052203;28;20375;-70
2021/12/06 07:04:21;;;;;;;81.90;28.60;;;;;;;1.25;98.54;101403.88;5060768;28;20049;-70
2021/12/06 07:06:47;;;;;;;99.38;27.95;;;;;;;1.27;98.48;101401.22;5042179;28;20038;-70
2021/12/06 07:09:13;;;;;;;82.13;29.52;;;;;;;1.27;98.52;101402.06;5044971;28;20590;-70
2021/12/06 07:11:38;;;;;;;52.28;29.45;;;;;;;1.31;98.44;101413.28;5032042;28;20071;-71
2021/12/06 07:14:04;;;;;;;50.88;28.20;;;;;;;1.32;98.74;101407.16;5033813;28;20529;-71
2021/12/06 07:16:29;;;;;;;56.42;28.98;;;;;;;1.35;98.65;101414.06;5031502;28;20056;-71
2021/12/06 07:18:55;;;;;;;127.80;28.98;;;;;;;1.35;98.80;101417.56;5032127;28;20112;-71
2021/12/06 07:21:21;;;;;;;60.83;30.40;;;;;;;1.37;99.06;101417.50;5033633;28;20033;-71
2021/12/06 07:23:48;;;;;;;64.45;30.38;;;;;;;1.39;99.02;101426.16;5032648;28;20036;-71
2021/12/06 07:26:17;;;;;;;58.25;30.20;;;;;;;1.41;99.00;101429.59;5031880;28;20041;-70
2021/12/06 07:28:45;;;;;;;58.70;29.08;;;;;;;1.43;98.90;101428.66;5035842;28;20052;-70
2021/12/06 07:31:13;;;;;;;94.80;30.48;;;;;;;1.45;99.21;101436.47;5034125;28;20025;-70
2021/12/06 07:33:38;;;;;;;52.13;29.55;;;;;;;1.45;98.86;101436.47;5036560;28;20116;-70
2021/12/06 07:36:04;;;;;;;56.88;30.70;;;;;;;1.45;98.84;101436.47;5035409;28;20100;-70
2021/12/06 07:38:30;;;;;;;47.80;29.30;;;;;;;1.48;99.21;101437.22;5032678;28;20156;-71
2021/12/06 07:40:56;;;;;;;51.03;29.35;;;;;;;1.51;99.29;101444.13;5049479;28;20037;-70
2021/12/06 07:43:22;;;;;;;54.33;28.98;;;;;;;1.52;98.98;101438.00;5044493;28;20438;-70
2021/12/06 07:45:48;;;;;;;45.17;30.75;;;;;;;1.55;99.09;101427.44;5059545;28;20526;-70
2021/12/06 07:48:14;;;;;;;44.42;30.85;;;;;;;1.59;99.28;101430.81;5047627;28;20125;-70
2021/12/06 07:50:40;;;;;;;44.65;31.38;;;;;;;1.62;99.04;101422.88;5052189;28;20028;-71
2021/12/06 07:53:06;;;;;;;44.60;31.88;;;;;;;1.64;99.42;101418.44;5069488;28;20127;-70
2021/12/06 07:55:34;;;;;;;58.65;34.72;;;;;;;1.66;99.12;101422.72;5034328;28;20033;-70
2021/12/06 07:58:09;;;;;;;53.50;34.33;;;;;;;1.69;98.99;101413.06;5036660;28;20046;-73
2021/12/06 08:00:40;;;;;;;63.72;35.50;;;;;;;1.69;99.54;101407.84;5045191;28;20078;-71
2021/12/06 08:03:07;;;;;;;88.03;39.75;;;;;;;1.71;99.38;101406.03;5056648;28;20045;-72
2021/12/06 08:05:33;;;;;;;76.82;39.92;;;;;;;1.72;99.39;101400.75;5051222;28;20033;-72
2021/12/06 08:08:07;;;;;;;89.10;40.38;;;;;;;1.75;99.34;101397.16;5043280;28;20037;-70
2021/12/06 08:10:35;;;;;;;89.18;40.90;;;;;;;1.74;99.50;101398.94;5052631;28;20176;-72
2021/12/06 08:13:01;;;;;;;73.05;41.33;;;;;;;1.76;99.19;101406.75;5051588;28;20460;-71
2021/12/06 08:15:26;;;;;;;76.32;41.08;;;;;;;1.76;99.45;101404.13;5044594;28;20035;-70
2021/12/06 08:17:51;;;;;;;88.78;40.60;;;;;;;1.77;99.63;101396.22;5051535;28;20076;-70
2021/12/06 08:20:17;;;;;;;74.75;40.53;;;;;;;1.80;99.73;101406.59;5064382;28;20318;-70
2021/12/06 08:22:42;;;;;;;78.72;44.13;;;;;;;1.82;99.77;101403.94;5046181;28;20044;-70
2021/12/06 08:25:10;;;;;;;89.25;42.20;;;;;;;1.83;99.83;101406.50;5051117;28;20033;-70
2021/12/06 08:27:36;;;;;;;80.20;41.53;;;;;;;1.84;99.55;101412.59;5042924;28;20539;-70
2021/12/06 08:30:03;;;;;;;76.00;41.53;;;;;;;1.85;99.80;101399.44;5041264;28;20018;-70
2021/12/06 08:32:28;;;;;;;80.50;42.92;;;;;;;1.88;99.86;101405.50;5030860;28;20030;-70
2021/12/06 08:34:54;;;;;;;73.85;41.95;;;;;;;1.89;99.85;101415.94;5047893;28;20391;-70
2021/12/06 08:37:19;;;;;;;77.28;42.60;;;;;;;1.89;99.77;101415.94;5046333;28;20071;-70
2021/12/06 08:39:44;;;;;;;76.85;42.35;;;;;;;1.91;99.42;101426.34;5042221;28;20049;-68
2021/12/06 08:42:10;;;;;;;74.63;42.45;;;;;;;1.91;99.72;101427.22;5053262;28;20499;-68
2021/12/06 08:44:35;;;;;;;75.90;42.95;;;;;;;1.93;99.56;101435.91;5052116;28;20040;-68
2021/12/06 08:47:02;;;;;;;76.18;42.90;;;;;;;1.95;99.74;101436.69;5057423;28;20394;-69
2021/12/06 08:49:29;;;;;;;79.95;43.17;;;;;;;1.98;99.67;101448.84;5044004;28;20123;-68
2021/12/06 08:51:56;;;;;;;81.68;43.95;;;;;;;1.98;100.00;101449.72;5038447;28;20029;-68
2021/12/06 08:54:26;;;;;;;78.05;42.85;;;;;;;2.01;99.67;101444.34;5064797;28;20036;-68
2021/12/06 08:56:53;;;;;;;72.57;40.83;;;;;;;2.02;99.62;101443.47;5051316;28;20067;-68
2021/12/06 08:59:18;;;;;;;77.00;41.58;;;;;;;2.03;99.77;101447.81;5033699;28;20509;-68
2021/12/06 09:01:44;;;;;;;77.40;41.72;;;;;;;2.05;99.48;101447.75;5048554;28;20134;-68
2021/12/06 09:04:12;;;;;;;77.95;42.38;;;;;;;2.04;99.38;101454.75;5047675;28;20033;-69
2021/12/06 09:06:40;;;;;;;77.47;41.83;;;;;;;2.06;99.88;101459.09;5033863;28;20032;-68
2021/12/06 09:09:08;;;;;;;78.85;39.63;;;;;;;2.06;99.69;101459.09;5056019;28;20385;-69
2021/12/06 09:11:34;;;;;;;73.95;39.33;;;;;;;2.06;99.69;101457.31;5056749;28;20033;-68
2021/12/06 09:14:00;;;;;;;72.47;37.38;;;;;;;2.06;99.56;101461.72;5038285;28;20037;-68
2021/12/06 09:16:25;;;;;;;66.63;36.47;;;;;;;2.07;99.62;101456.41;5054871;28;20032;-67
2021/12/06 09:18:52;;;;;;;70.32;37.13;;;;;;;2.08;99.38;101459.88;5059356;28;20059;-68
2021/12/06 09:21:21;;;;;;;70.32;37.13;;;;;;;2.07;99.28;101464.28;5068962;28;20529;-68
2021/12/06 09:23:46;;;;;;;69.95;37.22;;;;;;;2.07;99.38;101447.72;5055469;28;20477;-68
2021/12/06 09:26:12;;;;;;;73.40;38.15;;;;;;;2.07;99.49;101448.56;5051428;28;20077;-67
2021/12/06 09:28:38;;;;;;;73.00;36.92;;;;;;;2.10;99.45;101455.44;5045591;28;20108;-67
2021/12/06 09:31:04;;;;;;;74.55;39.58;;;;;;;2.12;99.44;101462.38;5058009;28;20111;-67
2021/12/06 09:33:30;;;;;;;71.65;39.10;;;;;;;2.15;99.72;101462.28;5064382;28;20052;-67
2021/12/06 09:35:58;;;;;;;72.43;38.85;;;;;;;2.18;99.54;101463.94;5060514;28;20033;-67
2021/12/06 09:38:28;;;;;;;75.55;38.83;;;;;;;2.21;99.59;101455.97;5063651;28;20090;-68
2021/12/06 09:40:55;;;;;;;72.85;38.72;;;;;;;2.22;99.43;101458.53;5058751;28;20060;-67
2021/12/06 09:43:21;;;;;;;81.78;40.67;;;;;;;2.21;99.55;101455.97;5060572;28;20035;-67
2021/12/06 09:45:48;;;;;;;88.90;41.38;;;;;;;2.19;99.48;101456.03;5069353;28;20032;-69
2021/12/06 09:48:16;;;;;;;88.80;41.42;;;;;;;2.21;99.74;101458.59;5045380;28;20029;-67
2021/12/06 09:50:52;;;;;;;109.22;45.50;;;;;;;2.21;99.65;101455.97;5069028;28;20048;-68
2021/12/06 09:53:22;;;;;;;112.93;43.92;;;;;;;2.20;99.45;101452.50;5048821;28;20025;-68
2021/12/06 09:55:52;;;;;;;127.97;45.97;;;;;;;2.25;99.49;101457.59;5038070;28;20037;-68
2021/12/06 09:58:17;;;;;;;;;;;;;;;2.32;99.49;101466.97;5054963;28;20510;-66
2021/12/06 10:00:47;;;;;;;120.60;44.10;;;;;;;2.28;99.31;101464.50;5028361;28;19957;-67
2021/12/06 10:03:18;;;;;;;145.73;46.20;;;;;;;2.27;99.38;101466.28;5041578;28;20108;-68
2021/12/06 10:05:44;;;;;;;137.77;45.10;;;;;;;2.27;99.38;101460.19;5036235;28;20037;-67
2021/12/06 10:08:09;;;;;;;132.07;46.30;;;;;;;2.25;99.41;101457.59;5053088;28;20043;-67
2021/12/06 10:10:35;;;;;;;146.13;47.80;;;;;;;2.27;99.53;101447.91;5038702;28;20029;-67
2021/12/06 10:13:00;;;;;;;124.13;45.83;;;;;;;2.26;99.00;101440.94;5041509;28;20104;-66
2021/12/06 10:15:28;;;;;;;129.13;47.50;;;;;;;2.25;99.13;101444.50;5042039;28;20119;-67
2021/12/06 10:17:55;;;;;;;131.93;46.63;;;;;;;2.25;99.17;101433.13;5043833;28;20625;-66
2021/12/06 10:20:21;;;;;;;116.40;43.22;;;;;;;2.25;99.29;101427.91;5035699;28;20083;-68
2021/12/06 10:22:49;;;;;;;113.82;41.53;;;;;;;2.25;98.99;101422.66;5033265;28;20030;-68
2021/12/06 10:25:15;;;;;;;110.00;41.03;;;;;;;2.25;98.75;101422.66;5046558;28;20033;-67
2021/12/06 10:27:51;;;;;;;104.10;41.63;;;;;;;2.22;98.61;101411.38;5036692;28;20037;-69
2021/12/06 10:30:16;;;;;;;96.85;40.00;;;;;;;2.24;98.83;101406.09;5037836;28;20380;-69
2021/12/06 10:32:44;;;;;;;104.03;40.17;;;;;;;2.23;98.89;101417.47;5046209;28;20029;-69
2021/12/06 10:35:13;;;;;;;98.68;41.50;;;;;;;2.25;98.78;101420.03;5072663;28;20029;-69
2021/12/06 10:37:46;;;;;;;98.32;41.45;;;;;;;2.25;98.83;101423.53;5065927;28;20053;-69
2021/12/06 10:40:30;;;;;;;104.53;41.28;;;;;;;2.31;98.99;101420.69;5064946;28;20095;-69
2021/12/06 10:42:57;;;;;;;89.80;39.67;;;;;;;2.25;98.50;101412.16;5042067;28;20037;-69
2021/12/06 10:45:34;;;;;;;86.30;39.05;;;;;;;2.29;98.50;101417.28;5036486;28;20112;-69
2021/12/06 10:48:07;;;;;;;81.72;37.22;;;;;;;2.27;98.68;101398.13;5035553;28;20025;-69
2021/12/06 10:50:33;;;;;;;82.47;37.97;;;;;;;2.29;98.37;101393.69;5027570;28;20046;-69
2021/12/06 10:53:00;;;;;;;74.68;35.53;;;;;;;2.27;98.02;101389.41;5040682;28;20021;-69
2021/12/06 10:55:29;;;;;;;77.03;37.90;;;;;;;2.26;98.26;101375.44;5034764;28;20045;-69
2021/12/06 10:58:07;;;;;;;73.10;39.00;;;;;;;2.23;97.98;101370.28;5041538;28;20445;-70
2021/12/06 11:00:53;;;;;;;77.15;36.55;;;;;;;2.21;97.55;101364.25;5044541;28;20056;-69
2021/12/06 11:03:26;;;;;;;62.95;32.97;;;;;;;2.15;97.60;101359.19;5039295;28;20380;-69
2021/12/06 11:05:59;;;;;;;55.00;30.38;;;;;;;2.09;97.32;101355.03;5056960;28;20023;-69
2021/12/06 11:08:25;;;;;;;53.90;28.55;;;;;;;2.05;96.91;101363.91;5043804;28;20664;-69
2021/12/06 11:10:58;;;;;;;60.58;31.55;;;;;;;2.00;96.58;101365.81;5031380;28;20029;-70
2021/12/06 11:13:26;;;;;;;64.75;32.63;;;;;;;1.95;96.33;101357.22;5050579;28;20572;-69
2021/12/06 11:16:15;;;;;;;63.15;30.35;;;;;;;1.98;96.63;101357.13;5050419;28;20493;-69
2021/12/06 11:18:54;;;;;;;57.08;30.08;;;;;;;1.95;96.80;101347.63;5047121;28;20467;-69
2021/12/06 11:21:21;;;;;;;60.30;29.58;;;;;;;1.96;96.73;101332.75;5048112;28;20028;-69
2021/12/06 11:24:01;;;;;;;52.13;25.98;;;;;;;1.97;96.50;101326.63;5051491;28;20553;-69
2021/12/06 11:26:27;;;;;;;52.17;27.17;;;;;;;1.87;96.59;101318.22;5042644;28;20047;-69
2021/12/06 11:28:52;;;;;;;53.47;27.65;;;;;;;1.84;96.73;101319.16;5052299;28;20220;-69